createdAt,value
2023-01-06T00:00:36.951Z,99260.78
2023-01-06T00:03:03.624Z,99257.28
2023-01-06T00:05:30.820Z,99258.31
2023-01-06T00:07:57.605Z,99251.72
2023-01-06T00:10:24.471Z,99257.28
2023-01-06T00:12:52.397Z,99261.41
2023-01-06T00:15:19.624Z,99262.22
2023-01-06T00:17:46.299Z,99258.91
2023-01-06T00:20:13.331Z,99257.28
2023-01-06T00:22:41.052Z,99258.31
2023-01-06T00:25:10.203Z,99259.75
2023-01-06T00:27:37.980Z,99256.03
2023-01-06T00:30:05.541Z,99249.84
2023-01-06T00:32:32.254Z,99248.22
2023-01-06T00:34:58.860Z,99252.53
2023-01-06T00:37:25.394Z,99256.47
2023-01-06T00:39:51.838Z,99250.25
2023-01-06T00:42:18.314Z,99261.81
2023-01-06T00:44:44.846Z,99255.59
2023-01-06T00:47:11.680Z,99255.59
2023-01-06T00:49:38.242Z,99258.31
2023-01-06T00:52:04.970Z,99254.78
2023-01-06T00:54:31.538Z,99257.88
2023-01-06T00:56:58.289Z,99262.59
2023-01-06T00:59:26.248Z,99267.53
2023-01-06T01:01:56.214Z,99270.22
2023-01-06T01:04:24.092Z,99271.69
2023-01-06T01:06:51.307Z,99277.81
2023-01-06T01:09:22.092Z,99272.28
2023-01-06T01:12:07.701Z,99276.81
2023-01-06T01:14:35.138Z,99274.13
2023-01-06T01:17:01.609Z,99273.09
2023-01-06T01:19:28.908Z,99274.13
2023-01-06T01:21:55.691Z,99278.66
2023-01-06T01:24:22.702Z,99290.59
2023-01-06T01:26:50.056Z,99284.84
2023-01-06T01:29:17.968Z,99286.06
2023-01-06T01:31:44.986Z,99297.56
2023-01-06T01:34:13.212Z,99289.75
2023-01-06T01:36:41.631Z,99294.69
2023-01-06T01:39:09.125Z,99293.03
2023-01-06T01:41:35.668Z,99286.06
2023-01-06T01:44:23.634Z,99294.72
2023-01-06T01:46:50.338Z,99290.59
2023-01-06T01:49:20.860Z,99288.16
2023-01-06T01:51:50.705Z,99293.09
2023-01-06T01:54:22.228Z,99294.72
2023-01-06T01:56:56.863Z,99291.00
2023-01-06T01:59:27.672Z,99301.72
2023-01-06T02:01:54.711Z,99297.59
2023-01-06T02:04:24.522Z,99295.53
2023-01-06T02:06:51.824Z,99296.59
2023-01-06T02:09:55.965Z,99300.94
2023-01-06T02:12:22.497Z,99295.75
2023-01-06T02:14:48.989Z,99288.34
2023-01-06T02:17:27.470Z,99287.09
2023-01-06T02:20:10.632Z,99301.75
2023-01-06T02:22:56.451Z,99295.16
2023-01-06T02:26:08.188Z,99287.31
2023-01-06T02:28:34.581Z,99284.66
2023-01-06T02:31:38.575Z,99290.63
2023-01-06T02:34:52.659Z,99282.59
2023-01-06T02:37:33.974Z,99282.78
2023-01-06T02:40:16.747Z,99277.66
2023-01-06T02:42:46.569Z,99277.44
2023-01-06T02:45:28.211Z,99271.47
2023-01-06T02:48:10.737Z,99273.97
2023-01-06T02:50:43.291Z,99270.25
2023-01-06T02:53:30.845Z,99269.00
2023-01-06T02:55:58.256Z,99257.88
2023-01-06T02:58:27.491Z,99259.13
2023-01-06T03:01:17.307Z,99260.56
2023-01-06T03:03:47.952Z,99261.59
2023-01-06T03:06:19.615Z,99260.56
2023-01-06T03:08:49.256Z,99257.28
2023-01-06T03:11:16.510Z,99255.22
2023-01-06T03:14:02.977Z,99249.03
2023-01-06T03:16:29.657Z,99251.31
2023-01-06T03:18:56.880Z,99246.59
2023-01-06T03:21:30.175Z,99231.75
2023-01-06T03:23:57.115Z,99224.75
2023-01-06T03:26:24.945Z,99228.22
2023-01-06T03:28:51.464Z,99229.28
2023-01-06T03:31:40.336Z,99231.53
2023-01-06T03:34:26.462Z,99227.22
2023-01-06T03:37:09.587Z,99230.13
2023-01-06T03:39:49.542Z,99242.66
2023-01-06T03:43:05.561Z,99236.06
2023-01-06T03:45:53.580Z,99235.25
2023-01-06T03:49:07.761Z,99232.19
2023-01-06T03:51:47.853Z,99238.75
2023-01-06T03:54:23.345Z,99241.22
2023-01-06T03:57:22.216Z,99244.31
2023-01-06T04:00:00.543Z,99235.66
2023-01-06T04:02:27.947Z,99225.78
2023-01-06T04:05:02.040Z,99231.53
2023-01-06T04:07:28.544Z,99240.78
2023-01-06T04:09:55.031Z,99239.75
2023-01-06T04:12:39.401Z,99238.34
2023-01-06T04:15:10.555Z,99230.72
2023-01-06T04:17:39.118Z,99240.41
2023-01-06T04:20:09.164Z,99239.34
2023-01-06T04:22:36.126Z,99230.91
2023-01-06T04:25:03.393Z,99229.69
2023-01-06T04:27:29.864Z,99230.50
2023-01-06T04:29:56.367Z,99237.72
2023-01-06T04:32:23.073Z,99228.66
2023-01-06T04:34:49.590Z,99228.44
2023-01-06T04:37:16.166Z,99228.03
2023-01-06T04:39:42.884Z,99223.09
2023-01-06T04:42:09.747Z,99230.53
2023-01-06T04:44:36.305Z,99224.13
2023-01-06T04:47:02.903Z,99232.34
2023-01-06T04:49:29.400Z,99229.06
2023-01-06T04:51:55.877Z,99235.03
2023-01-06T04:54:22.344Z,99227.63
2023-01-06T04:56:48.927Z,99220.38
2023-01-06T04:59:15.416Z,99215.84
2023-01-06T05:01:42.046Z,99227.59
2023-01-06T05:04:08.634Z,99222.03
2023-01-06T05:06:35.563Z,99217.50
2023-01-06T05:09:02.483Z,99225.13
2023-01-06T05:11:29.044Z,99217.28
2023-01-06T05:13:55.552Z,99216.88
2023-01-06T05:16:27.410Z,99225.13
2023-01-06T05:18:54.901Z,99235.81
2023-01-06T05:21:22.185Z,99238.31
2023-01-06T05:23:48.655Z,99235.03
2023-01-06T05:26:20.178Z,99248.81
2023-01-06T05:28:47.644Z,99246.53
2023-01-06T05:31:14.706Z,99249.22
2023-01-06T05:33:41.705Z,99244.03
2023-01-06T05:36:11.048Z,99246.94
2023-01-06T05:38:37.639Z,99241.38
2023-01-06T05:41:04.469Z,99245.31
2023-01-06T05:43:33.741Z,99241.41
2023-01-06T05:46:05.965Z,99241.16
2023-01-06T05:48:32.515Z,99241.16
2023-01-06T05:51:07.449Z,99235.81
2023-01-06T05:53:35.616Z,99249.63
2023-01-06T05:56:07.498Z,99253.75
2023-01-06T05:58:35.234Z,99249.81
2023-01-06T06:01:02.674Z,99248.78
2023-01-06T06:03:29.351Z,99252.69
2023-01-06T06:05:55.951Z,99259.50
2023-01-06T06:08:22.416Z,99250.63
2023-01-06T06:10:48.947Z,99250.19
2023-01-06T06:13:15.478Z,99247.94
2023-01-06T06:15:41.974Z,99246.50
2023-01-06T06:18:08.496Z,99244.03
2023-01-06T06:20:35.034Z,99247.09
2023-01-06T06:23:01.550Z,99250.19
2023-01-06T06:25:29.427Z,99236.00
2023-01-06T06:27:59.532Z,99242.34
2023-01-06T06:30:26.115Z,99242.97
2023-01-06T06:32:52.652Z,99238.66
2023-01-06T06:35:19.217Z,99230.44
2023-01-06T06:37:45.712Z,99230.41
2023-01-06T06:40:12.599Z,99225.03
2023-01-06T06:42:39.360Z,99228.53
2023-01-06T06:45:06.543Z,99229.19
2023-01-06T06:47:32.991Z,99220.53
2023-01-06T06:49:59.493Z,99229.34
2023-01-06T06:52:25.933Z,99228.53
2023-01-06T06:54:52.467Z,99231.66
2023-01-06T06:57:18.901Z,99232.91
2023-01-06T06:59:45.353Z,99231.91
2023-01-06T07:02:11.927Z,99230.06
2023-01-06T07:04:38.563Z,99242.81
2023-01-06T07:07:05.569Z,99241.81
2023-01-06T07:09:32.081Z,99249.41
2023-01-06T07:11:58.541Z,99248.41
2023-01-06T07:14:25.001Z,99254.56
2023-01-06T07:16:51.530Z,99253.56
2023-01-06T07:19:17.964Z,99257.25
2023-01-06T07:21:44.630Z,99263.44
2023-01-06T07:24:11.213Z,99260.97
2023-01-06T07:26:37.668Z,99267.16
2023-01-06T07:29:04.101Z,99266.75
2023-01-06T07:31:30.688Z,99269.59
2023-01-06T07:33:57.242Z,99271.47
2023-01-06T07:36:23.715Z,99264.44
2023-01-06T07:38:50.155Z,99265.44
2023-01-06T07:41:16.697Z,99265.47
2023-01-06T07:43:43.164Z,99268.53
2023-01-06T07:46:09.764Z,99272.66
2023-01-06T07:48:36.960Z,99279.41
2023-01-06T07:51:03.795Z,99279.78
2023-01-06T07:53:30.490Z,99283.09
2023-01-06T07:55:56.983Z,99283.13
2023-01-06T07:58:26.364Z,99286.25
2023-01-06T08:00:52.864Z,99296.53
2023-01-06T08:03:19.382Z,99294.03
2023-01-06T08:05:45.889Z,99295.44
2023-01-06T08:08:12.823Z,99298.13
2023-01-06T08:10:41.110Z,99294.56
2023-01-06T08:13:08.772Z,99297.28
2023-01-06T08:15:36.827Z,99302.84
2023-01-06T08:18:03.450Z,99299.72
2023-01-06T08:20:29.963Z,99304.84
2023-01-06T08:22:58.086Z,99287.91
2023-01-06T08:25:24.680Z,99293.88
2023-01-06T08:27:51.379Z,99291.56
2023-01-06T08:30:21.534Z,99301.81
2023-01-06T08:32:48.940Z,99299.75
2023-01-06T08:35:16.392Z,99300.56
2023-01-06T08:37:43.185Z,99299.72
2023-01-06T08:40:10.234Z,99302.78
2023-01-06T08:42:36.744Z,99300.47
2023-01-06T08:45:03.464Z,99300.47
2023-01-06T08:47:29.949Z,99298.72
2023-01-06T08:49:56.467Z,99304.28
2023-01-06T08:52:22.943Z,99306.53
2023-01-06T08:54:49.427Z,99306.13
2023-01-06T08:57:16.400Z,99310.19
2023-01-06T08:59:42.938Z,99310.19
2023-01-06T09:02:12.561Z,99303.06
2023-01-06T09:04:39.426Z,99316.66
2023-01-06T09:07:05.978Z,99316.03
2023-01-06T09:09:33.624Z,99316.72
2023-01-06T09:12:00.339Z,99325.31
2023-01-06T09:14:26.820Z,99327.78
2023-01-06T09:16:53.456Z,99333.09
2023-01-06T09:19:20.631Z,99330.59
2023-01-06T09:21:47.178Z,99320.91
2023-01-06T09:24:15.098Z,99326.09
2023-01-06T09:26:41.965Z,99321.91
2023-01-06T09:29:08.571Z,99335.91
2023-01-06T09:31:35.143Z,99338.94
2023-01-06T09:34:01.733Z,99339.56
2023-01-06T09:36:28.362Z,99340.50
2023-01-06T09:38:54.881Z,99342.38
2023-01-06T09:41:51.789Z,99350.09
2023-01-06T09:44:31.405Z,99355.47
2023-01-06T09:47:00.478Z,99346.78
2023-01-06T09:49:48.609Z,99353.06
2023-01-06T09:52:51.851Z,99354.50
2023-01-06T09:55:26.099Z,99359.09
2023-01-06T09:57:59.104Z,99365.22
2023-01-06T10:00:37.483Z,99353.59
2023-01-06T10:03:05.511Z,99359.88
2023-01-06T10:05:50.340Z,99358.69
2023-01-06T10:08:30.056Z,99364.06
2023-01-06T10:11:13.760Z,99360.69
2023-01-06T10:13:46.226Z,99357.69
2023-01-06T10:16:31.636Z,99349.38
2023-01-06T10:19:03.756Z,99335.63
2023-01-06T10:21:42.134Z,99339.28
2023-01-06T10:24:32.515Z,99332.91
2023-01-06T10:27:14.546Z,99332.72
2023-01-06T10:29:43.482Z,99335.56
2023-01-06T10:32:16.486Z,99334.91
2023-01-06T10:34:46.544Z,99333.25
2023-01-06T10:37:21.086Z,99331.81
2023-01-06T10:39:52.506Z,99328.06
2023-01-06T10:43:07.304Z,99321.00
2023-01-06T10:45:47.251Z,99323.97
2023-01-06T10:48:17.071Z,99322.53
2023-01-06T10:50:43.789Z,99321.03
2023-01-06T10:53:12.462Z,99314.28
2023-01-06T10:55:59.014Z,99317.53
2023-01-06T10:58:45.452Z,99312.53
2023-01-06T11:01:17.336Z,99312.41
2023-01-06T11:03:45.598Z,99307.00
2023-01-06T11:06:18.295Z,99305.59
2023-01-06T11:08:44.949Z,99303.72
2023-01-06T11:11:27.195Z,99298.94
2023-01-06T11:14:00.943Z,99301.03
2023-01-06T11:16:33.225Z,99298.94
2023-01-06T11:19:06.277Z,99286.03
2023-01-06T11:21:53.029Z,99284.84
2023-01-06T11:24:23.066Z,99280.06
2023-01-06T11:27:00.157Z,99275.50
2023-01-06T11:29:32.587Z,99270.44
2023-01-06T11:32:20.233Z,99271.75
2023-01-06T11:34:56.282Z,99268.00
2023-01-06T11:37:49.227Z,99264.59
2023-01-06T11:40:29.904Z,99263.75
2023-01-06T11:43:00.483Z,99254.50
2023-01-06T11:45:35.339Z,99247.72
2023-01-06T11:48:28.351Z,99253.69
2023-01-06T11:50:58.147Z,99247.34
2023-01-06T11:53:25.217Z,99247.88
2023-01-06T11:56:14.500Z,99246.13
2023-01-06T11:59:00.333Z,99235.81
2023-01-06T12:01:33.444Z,99230.09
2023-01-06T12:04:24.659Z,99233.47
2023-01-06T12:06:58.909Z,99226.72
2023-01-06T12:09:32.482Z,99227.91
2023-01-06T12:12:05.233Z,99217.50
2023-01-06T12:14:36.135Z,99219.34
2023-01-06T12:17:11.891Z,99211.22
2023-01-06T12:19:59.886Z,99214.63
2023-01-06T12:22:56.661Z,99212.41
2023-01-06T12:25:25.107Z,99218.25
2023-01-06T12:28:09.368Z,99215.28
2023-01-06T12:30:42.941Z,99213.69
2023-01-06T12:33:44.313Z,99204.44
2023-01-06T12:36:23.061Z,99208.34
2023-01-06T12:39:11.842Z,99213.16
2023-01-06T12:41:44.766Z,99216.31
2023-01-06T12:44:36.013Z,99210.94
2023-01-06T12:47:17.362Z,99200.75
2023-01-06T12:50:14.885Z,99199.34
2023-01-06T12:53:19.787Z,99209.53
2023-01-06T12:56:02.377Z,99202.03
2023-01-06T12:58:56.433Z,99202.25
2023-01-06T13:01:50.913Z,99200.75
2023-01-06T13:04:36.091Z,99197.94
2023-01-06T13:07:17.043Z,99197.25
2023-01-06T13:09:55.780Z,99192.69
2023-01-06T13:12:59.041Z,99187.63
2023-01-06T13:15:29.021Z,99187.50
2023-01-06T13:18:07.221Z,99183.19
2023-01-06T13:20:45.892Z,99186.69
2023-01-06T13:23:21.319Z,99179.44
2023-01-06T13:26:17.181Z,99183.53
2023-01-06T13:29:19.350Z,99177.56
2023-01-06T13:32:23.190Z,99177.13
2023-01-06T13:35:10.898Z,99179.44
2023-01-06T13:37:50.908Z,99179.91
2023-01-06T13:40:20.981Z,99167.94
2023-01-06T13:42:55.525Z,99164.81
2023-01-06T13:45:29.027Z,99168.91
2023-01-06T13:47:57.798Z,99167.25
2023-01-06T13:50:25.869Z,99156.91
2023-01-06T13:52:54.061Z,99161.88
2023-01-06T13:55:38.745Z,99160.72
2023-01-06T13:58:23.625Z,99157.88
2023-01-06T14:01:12.538Z,99159.59
2023-01-06T14:03:43.328Z,99150.84
2023-01-06T14:06:32.597Z,99155.41
2023-01-06T14:09:01.395Z,99160.19
2023-01-06T14:11:37.805Z,99148.00
2023-01-06T14:14:28.330Z,99163.81
2023-01-06T14:16:56.498Z,99157.84
2023-01-06T14:19:27.913Z,99158.88
2023-01-06T14:22:12.024Z,99160.06
2023-01-06T14:24:43.468Z,99160.41
2023-01-06T14:27:12.500Z,99153.41
2023-01-06T14:29:45.279Z,99152.66
2023-01-06T14:32:14.431Z,99153.59
2023-01-06T14:34:59.973Z,99156.16
2023-01-06T14:37:52.855Z,99153.94
2023-01-06T14:40:24.963Z,99155.22
2023-01-06T14:42:53.081Z,99154.88
2023-01-06T14:45:34.324Z,99154.28
2023-01-06T14:48:12.893Z,99155.22
2023-01-06T14:50:47.462Z,99153.72
2023-01-06T14:53:21.964Z,99155.31
2023-01-06T14:55:50.436Z,99151.22
2023-01-06T14:58:39.119Z,99159.56
2023-01-06T15:01:35.440Z,99151.50
2023-01-06T15:04:03.654Z,99149.84
2023-01-06T15:06:31.467Z,99149.63
2023-01-06T15:09:20.406Z,99162.47
2023-01-06T15:11:47.348Z,99167.81
2023-01-06T15:14:26.023Z,99163.84
2023-01-06T15:16:54.587Z,99158.25
2023-01-06T15:19:21.618Z,99159.44
2023-01-06T15:21:50.309Z,99160.81
2023-01-06T15:24:24.457Z,99166.91
2023-01-06T15:26:52.570Z,99161.94
2023-01-06T15:29:21.669Z,99163.81
2023-01-06T15:31:50.498Z,99163.00
2023-01-06T15:34:21.297Z,99154.44
2023-01-06T15:36:50.661Z,99165.09
2023-01-06T15:39:24.684Z,99156.91
2023-01-06T15:41:51.505Z,99156.34
2023-01-06T15:44:27.658Z,99162.03
2023-01-06T15:47:37.320Z,99161.78
2023-01-06T15:50:07.710Z,99164.34
2023-01-06T15:53:00.105Z,99169.09
2023-01-06T15:55:32.624Z,99169.81
2023-01-06T15:58:07.440Z,99168.84
2023-01-06T16:00:45.496Z,99177.09
2023-01-06T16:03:24.407Z,99170.50
2023-01-06T16:05:57.653Z,99175.56
2023-01-06T16:08:30.255Z,99176.75
2023-01-06T16:11:12.986Z,99180.25
2023-01-06T16:13:40.123Z,99175.72
2023-01-06T16:16:26.301Z,99182.50
2023-01-06T16:18:54.673Z,99177.34
2023-01-06T16:21:31.847Z,99184.72
2023-01-06T16:24:02.053Z,99186.47
2023-01-06T16:26:32.124Z,99176.44
2023-01-06T16:29:01.422Z,99193.63
2023-01-06T16:31:34.028Z,99192.44
2023-01-06T16:34:19.011Z,99199.06
2023-01-06T16:36:45.522Z,99204.59
2023-01-06T16:39:12.083Z,99204.25
2023-01-06T16:41:38.569Z,99197.50
2023-01-06T16:44:05.005Z,99204.56
2023-01-06T16:46:31.579Z,99202.78
2023-01-06T16:49:05.519Z,99207.72
2023-01-06T16:51:32.017Z,99212.56
2023-01-06T16:53:58.776Z,99214.28
2023-01-06T16:56:25.263Z,99214.38
2023-01-06T16:58:53.546Z,99215.59
2023-01-06T17:01:22.291Z,99214.00
2023-01-06T17:03:54.976Z,99209.25
2023-01-06T17:06:25.045Z,99213.19
2023-01-06T17:08:54.394Z,99213.41
2023-01-06T17:11:26.733Z,99213.94
2023-01-06T17:14:00.759Z,99221.41
2023-01-06T17:16:36.037Z,99216.47
2023-01-06T17:19:14.195Z,99220.28
2023-01-06T17:21:41.009Z,99217.59
2023-01-06T17:24:21.036Z,99222.44
2023-01-06T17:26:55.189Z,99222.91
2023-01-06T17:29:22.279Z,99220.66
2023-01-06T17:31:52.023Z,99217.97
2023-01-06T17:34:31.795Z,99218.44
2023-01-06T17:37:03.682Z,99217.69
2023-01-06T17:39:32.491Z,99225.59
2023-01-06T17:42:08.229Z,99224.16
2023-01-06T17:44:51.319Z,99215.78
2023-01-06T17:47:17.765Z,99224.03
2023-01-06T17:49:52.416Z,99218.13
2023-01-06T17:52:22.702Z,99218.34
2023-01-06T17:55:13.991Z,99214.69
2023-01-06T17:57:42.254Z,99215.56
2023-01-06T18:00:15.667Z,99214.38
2023-01-06T18:02:44.236Z,99215.28
2023-01-06T18:05:26.014Z,99218.72
2023-01-06T18:07:59.927Z,99215.44
2023-01-06T18:10:26.456Z,99204.91
2023-01-06T18:12:55.842Z,99217.97
2023-01-06T18:15:33.549Z,99217.97
2023-01-06T18:18:32.366Z,99218.41
2023-01-06T18:21:17.145Z,99217.34
2023-01-06T18:23:50.090Z,99214.47
2023-01-06T18:26:31.978Z,99217.59
2023-01-06T18:29:26.302Z,99222.53
2023-01-06T18:31:54.079Z,99225.66
2023-01-06T18:34:40.842Z,99220.28
2023-01-06T18:37:07.532Z,99222.69
2023-01-06T18:39:44.132Z,99220.88
2023-01-06T18:42:23.214Z,99218.84
2023-01-06T18:44:55.487Z,99226.53
2023-01-06T18:47:23.867Z,99224.44
2023-01-06T18:49:56.949Z,99225.31
2023-01-06T18:52:40.116Z,99230.03
2023-01-06T18:55:35.704Z,99227.13
2023-01-06T18:58:26.966Z,99220.34
2023-01-06T19:00:57.683Z,99222.19
2023-01-06T19:03:39.204Z,99221.00
2023-01-06T19:06:08.753Z,99218.97
2023-01-06T19:08:38.057Z,99218.59
2023-01-06T19:11:13.385Z,99217.03
2023-01-06T19:13:39.954Z,99218.09
2023-01-06T19:16:26.026Z,99218.53
2023-01-06T19:18:53.048Z,99221.44
2023-01-06T19:21:22.682Z,99213.06
2023-01-06T19:23:49.214Z,99212.44
2023-01-06T19:26:40.172Z,99213.88
2023-01-06T19:29:12.675Z,99206.44
2023-01-06T19:31:46.839Z,99206.19
2023-01-06T19:34:15.746Z,99209.50
2023-01-06T19:36:48.966Z,99210.09
2023-01-06T19:39:26.294Z,99205.78
2023-01-06T19:41:55.907Z,99207.19
2023-01-06T19:44:33.616Z,99205.34
2023-01-06T19:47:10.873Z,99208.97
2023-01-06T19:49:40.371Z,99202.78
2023-01-06T19:52:31.624Z,99209.44
2023-01-06T19:55:16.480Z,99201.16
2023-01-06T19:57:48.991Z,99199.03
2023-01-06T20:00:22.916Z,99194.84
2023-01-06T20:02:50.956Z,99193.13
2023-01-06T20:05:18.816Z,99196.28
2023-01-06T20:07:45.584Z,99189.84
2023-01-06T20:10:12.182Z,99190.69
2023-01-06T20:12:38.683Z,99196.00
2023-01-06T20:15:06.806Z,99188.59
2023-01-06T20:17:33.465Z,99181.88
2023-01-06T20:19:59.954Z,99182.69
2023-01-06T20:22:26.419Z,99178.81
2023-01-06T20:24:52.966Z,99184.03
2023-01-06T20:27:19.510Z,99174.19
2023-01-06T20:29:45.947Z,99180.16
2023-01-06T20:32:12.382Z,99170.25
2023-01-06T20:34:38.845Z,99179.09
2023-01-06T20:37:05.457Z,99174.63
2023-01-06T20:39:31.918Z,99176.72
2023-01-06T20:42:00.315Z,99184.34
2023-01-06T20:44:26.840Z,99171.50
2023-01-06T20:46:53.368Z,99170.91
2023-01-06T20:49:20.562Z,99165.09
2023-01-06T20:51:47.358Z,99165.31
2023-01-06T20:54:13.962Z,99177.75
2023-01-06T20:56:40.392Z,99164.50
2023-01-06T20:59:06.870Z,99163.16
2023-01-06T21:01:33.536Z,99162.31
2023-01-06T21:04:00.164Z,99155.84
2023-01-06T21:06:26.756Z,99157.94
2023-01-06T21:08:53.205Z,99162.78
2023-01-06T21:11:19.666Z,99156.88
2023-01-06T21:13:46.253Z,99153.16
2023-01-06T21:16:12.836Z,99157.31
2023-01-06T21:18:39.419Z,99161.66
2023-01-06T21:21:06.099Z,99151.97
2023-01-06T21:23:32.562Z,99158.47
2023-01-06T21:25:59.044Z,99154.41
2023-01-06T21:28:25.593Z,99154.56
2023-01-06T21:30:52.111Z,99144.22
2023-01-06T21:33:21.275Z,99149.91
2023-01-06T21:35:48.218Z,99142.84
2023-01-06T21:38:14.736Z,99141.34
2023-01-06T21:40:41.245Z,99145.63
2023-01-06T21:43:09.045Z,99143.47
2023-01-06T21:45:40.502Z,99134.69
2023-01-06T21:48:08.414Z,99143.28
2023-01-06T21:50:38.872Z,99145.81
2023-01-06T21:53:07.013Z,99135.69
2023-01-06T21:55:33.576Z,99140.06
2023-01-06T21:58:01.035Z,99135.41
2023-01-06T22:00:27.702Z,99133.78
2023-01-06T22:02:54.638Z,99138.91
2023-01-06T22:05:22.303Z,99141.66
2023-01-06T22:07:51.910Z,99141.28
2023-01-06T22:10:21.104Z,99143.09
2023-01-06T22:12:50.284Z,99145.34
2023-01-06T22:15:16.869Z,99135.22
2023-01-06T22:17:43.579Z,99134.06
2023-01-06T22:20:11.727Z,99134.59
2023-01-06T22:22:39.077Z,99133.34
2023-01-06T22:25:06.322Z,99137.03
2023-01-06T22:27:32.881Z,99135.25
2023-01-06T22:29:59.381Z,99132.34
2023-01-06T22:32:27.632Z,99130.50
2023-01-06T22:34:54.133Z,99128.63
2023-01-06T22:37:20.611Z,99124.06
2023-01-06T22:39:47.170Z,99118.94
2023-01-06T22:42:13.726Z,99126.00
2023-01-06T22:44:40.205Z,99128.00
2023-01-06T22:47:06.818Z,99116.00
2023-01-06T22:49:33.263Z,99114.28
2023-01-06T22:51:59.824Z,99125.19
2023-01-06T22:54:26.370Z,99109.91
2023-01-06T22:56:52.908Z,99114.09
2023-01-06T22:59:19.443Z,99111.97
2023-01-06T23:01:46.066Z,99101.69
2023-01-06T23:04:14.793Z,99096.69
2023-01-06T23:06:41.282Z,99104.81
2023-01-06T23:09:07.729Z,99098.72
2023-01-06T23:11:36.854Z,99101.38
2023-01-06T23:14:03.383Z,99092.72
2023-01-06T23:16:30.178Z,99088.63
2023-01-06T23:18:56.935Z,99092.13
2023-01-06T23:21:25.105Z,99093.91
2023-01-06T23:23:52.214Z,99083.19
2023-01-06T23:26:43.275Z,99086.19
2023-01-06T23:29:10.256Z,99081.38
2023-01-06T23:31:42.509Z,99076.19
2023-01-06T23:34:15.554Z,99073.34
2023-01-06T23:36:42.704Z,99080.50
2023-01-06T23:39:12.349Z,99080.50
2023-01-06T23:41:39.328Z,99068.22
2023-01-06T23:44:06.411Z,99066.63
2023-01-06T23:46:38.400Z,99056.34
2023-01-06T23:49:06.970Z,99065.00
2023-01-06T23:51:33.955Z,99060.31
2023-01-06T23:54:02.025Z,99053.53
2023-01-06T23:56:30.668Z,99055.16
2023-01-06T23:59:01.184Z,99053.09
